Time;durP1;ratioP1;P1;durP2;ratioP2;P2;SDS_P1;SDS_P2;PMS_P1;PMS_P2;Temp;Humidity;BMP_temperature;BMP_pressure;BME280_temperature;BME280_humidity;BME280_pressure;Samples;Min_cycle;Max_cycle;Signal;HPM_P1;HPM_P2
2023/04/02 00:00:19;;;;;;;15.98;4.60;;;6.90;99.90;;;;;;4959782;29;20050;-71
2023/04/02 00:02:46;;;;;;;10.40;4.40;;;6.90;99.90;;;;;;4957386;28;20031;-72
2023/04/02 00:05:29;;;;;;;15.63;5.53;;;6.90;99.90;;;;;;4959558;28;20373;-71
2023/04/02 00:08:16;;;;;;;7.45;3.88;;;6.90;99.90;;;;;;4959842;28;20106;-71
2023/04/02 00:10:50;;;;;;;19.90;7.65;;;6.90;99.90;;;;;;4958339;28;20053;-71
2023/04/02 00:13:16;;;;;;;12.60;4.60;;;6.90;99.90;;;;;;4959608;29;20027;-71
2023/04/02 00:15:45;;;;;;;8.25;4.78;;;6.90;99.90;;;;;;4959193;28;20030;-72
2023/04/02 00:18:20;;;;;;;8.77;4.35;;;6.90;99.90;;;;;;4959533;29;20032;-71
2023/04/02 00:20:51;;;;;;;10.20;3.80;;;6.90;99.90;;;;;;4959269;29;20043;-71
2023/04/02 00:23:18;;;;;;;9.38;4.68;;;7.00;99.90;;;;;;4958224;28;20027;-71
2023/04/02 00:25:45;;;;;;;13.27;3.70;;;7.00;99.90;;;;;;4958693;29;20015;-72
2023/04/02 00:28:20;;;;;;;8.30;4.50;;;7.00;99.90;;;;;;4958905;28;20030;-70
2023/04/02 00:30:59;;;;;;;8.77;4.40;;;7.00;99.90;;;;;;4959333;29;20046;-71
2023/04/02 00:33:29;;;;;;;7.50;4.60;;;7.10;99.90;;;;;;4959136;28;20026;-71
2023/04/02 00:35:55;;;;;;;11.10;4.25;;;7.10;99.90;;;;;;4957786;28;20038;-71
2023/04/02 00:38:31;;;;;;;5.65;3.13;;;7.10;99.90;;;;;;4959537;28;20440;-71
2023/04/02 00:41:00;;;;;;;14.63;5.07;;;7.00;99.90;;;;;;4959244;28;20027;-71
2023/04/02 00:43:29;;;;;;;6.43;3.35;;;7.00;99.90;;;;;;4959141;29;20037;-71
2023/04/02 00:46:02;;;;;;;15.68;4.30;;;7.00;99.90;;;;;;4959218;29;20382;-71
2023/04/02 00:48:31;;;;;;;8.98;4.47;;;7.10;99.90;;;;;;4968669;28;20031;-71
2023/04/02 00:51:14;;;;;;;5.00;3.38;;;7.00;99.90;;;;;;4957673;28;20034;-69
2023/04/02 00:53:42;;;;;;;8.10;3.88;;;7.10;99.90;;;;;;4959110;28;20062;-70
2023/04/02 00:56:31;;;;;;;11.10;4.10;;;7.10;99.90;;;;;;4957618;28;20023;-71
2023/04/02 00:58:57;;;;;;;7.70;3.75;;;7.10;99.90;;;;;;4952484;29;20082;-71
2023/04/02 01:01:33;;;;;;;7.57;3.90;;;7.10;99.90;;;;;;4958816;28;20031;-70
2023/04/02 01:04:00;;;;;;;10.93;4.10;;;7.10;99.90;;;;;;4948768;29;20035;-71
2023/04/02 01:06:37;;;;;;;6.07;3.80;;;7.10;99.90;;;;;;4958776;29;20035;-71
2023/04/02 01:09:10;;;;;;;9.35;4.13;;;7.20;99.90;;;;;;4958919;29;20054;-71
2023/04/02 01:11:51;;;;;;;7.18;3.90;;;7.20;99.90;;;;;;4958726;28;20016;-71
2023/04/02 01:14:47;;;;;;;8.93;4.50;;;7.20;99.90;;;;;;4958897;29;20031;-70
2023/04/02 01:17:18;;;;;;;8.38;4.28;;;7.20;99.90;;;;;;4950913;29;20030;-71
2023/04/02 01:19:57;;;;;;;12.82;4.20;;;7.20;99.90;;;;;;4958293;29;20119;-71
2023/04/02 01:22:59;;;;;;;6.65;3.90;;;7.20;99.90;;;;;;4957327;28;20396;-72
2023/04/02 01:25:40;;;;;;;6.85;3.63;;;7.20;99.90;;;;;;4951571;28;20471;-71
2023/04/02 01:28:18;;;;;;;9.18;3.53;;;7.30;99.90;;;;;;4968476;28;20487;-72
2023/04/02 01:30:51;;;;;;;4.57;4.10;;;7.30;99.90;;;;;;4962693;28;20480;-71
2023/04/02 01:33:18;;;;;;;14.05;4.07;;;7.30;99.90;;;;;;4960944;28;20103;-71
2023/04/02 01:35:51;;;;;;;13.05;4.43;;;7.30;99.90;;;;;;4962426;28;20094;-72
2023/04/02 01:38:26;;;;;;;18.50;5.32;;;7.30;99.90;;;;;;4962530;29;20033;-71
2023/04/02 01:41:05;;;;;;;11.85;4.22;;;7.40;99.90;;;;;;4962463;28;20069;-71
2023/04/02 01:43:45;;;;;;;8.55;4.50;;;7.40;99.90;;;;;;4962427;29;20042;-72
2023/04/02 01:46:27;;;;;;;10.75;4.03;;;7.40;99.90;;;;;;4951346;28;20015;-72
2023/04/02 01:48:55;;;;;;;9.93;3.88;;;7.40;99.90;;;;;;4960373;28;20039;-72
2023/04/02 01:51:33;;;;;;;11.07;4.38;;;7.40;99.90;;;;;;4961025;29;20020;-71
2023/04/02 01:54:01;;;;;;;10.82;4.75;;;7.40;99.90;;;;;;4962208;28;20019;-71
2023/04/02 01:56:29;;;;;;;11.10;4.43;;;7.40;99.90;;;;;;4962202;29;20028;-71
2023/04/02 01:58:56;;;;;;;9.43;4.22;;;7.40;99.90;;;;;;4961880;28;20416;-72
2023/04/02 02:01:26;;;;;;;5.57;3.75;;;7.40;99.90;;;;;;4960773;28;20086;-71
2023/04/02 02:03:52;;;;;;;6.65;3.50;;;7.30;99.90;;;;;;4961519;28;20046;-72
2023/04/02 02:06:18;;;;;;;12.80;4.32;;;7.30;99.90;;;;;;4960768;29;20115;-71
2023/04/02 02:08:53;;;;;;;15.05;5.95;;;7.30;99.90;;;;;;4960543;28;20035;-72
2023/04/02 02:11:22;;;;;;;9.57;3.85;;;7.30;99.90;;;;;;4959687;28;20082;-71
2023/04/02 02:13:53;;;;;;;6.53;3.80;;;7.20;99.90;;;;;;4961862;28;20102;-71
2023/04/02 02:16:20;;;;;;;13.48;4.00;;;7.20;99.90;;;;;;4961783;28;20023;-72
2023/04/02 02:18:50;;;;;;;10.68;4.40;;;7.20;99.90;;;;;;4960156;28;20069;-71
2023/04/02 02:21:47;;;;;;;10.45;4.05;;;7.20;99.90;;;;;;4960350;28;20047;-72
2023/04/02 02:24:18;;;;;;;11.15;5.10;;;7.10;99.90;;;;;;4959892;28;20098;-71
2023/04/02 02:26:47;;;;;;;10.90;4.47;;;7.10;99.90;;;;;;4960365;28;20086;-71
2023/04/02 02:29:17;;;;;;;13.13;5.07;;;7.10;99.90;;;;;;4958969;28;20514;-71
2023/04/02 02:31:44;;;;;;;12.23;4.05;;;7.00;99.90;;;;;;4960342;28;20447;-71
2023/04/02 02:34:17;;;;;;;7.30;3.90;;;7.00;99.90;;;;;;4958698;28;20051;-71
2023/04/02 02:36:57;;;;;;;12.20;4.32;;;7.00;99.90;;;;;;4960522;28;20150;-71
2023/04/02 02:39:26;;;;;;;15.48;5.60;;;7.00;99.90;;;;;;4959919;28;20059;-71
2023/04/02 02:42:26;;;;;;;11.88;4.20;;;7.00;99.90;;;;;;4959012;29;20027;-71
2023/04/02 02:44:55;;;;;;;11.07;5.10;;;7.00;99.90;;;;;;4953690;29;20019;-71
2023/04/02 02:47:31;;;;;;;8.43;4.43;;;7.00;99.90;;;;;;4959603;29;20020;-71
2023/04/02 02:50:02;;;;;;;16.70;4.50;;;7.00;99.90;;;;;;4959514;28;20031;-71
2023/04/02 02:52:34;;;;;;;8.43;4.28;;;7.00;99.90;;;;;;4958932;28;20110;-71
2023/04/02 02:55:01;;;;;;;18.10;5.50;;;7.00;99.90;;;;;;4958554;28;20043;-71
2023/04/02 02:57:34;;;;;;;17.70;4.40;;;7.00;99.90;;;;;;4960128;28;20082;-71
2023/04/02 03:00:02;;;;;;;15.70;4.90;;;7.00;99.90;;;;;;4959665;28;20403;-71
2023/04/02 03:02:28;;;;;;;11.30;4.65;;;7.00;99.90;;;;;;4958328;28;20078;-71
2023/04/02 03:04:55;;;;;;;19.92;4.80;;;6.90;99.90;;;;;;4957639;28;20027;-71
2023/04/02 03:07:24;;;;;;;7.95;4.40;;;6.90;99.90;;;;;;4959685;28;20023;-71
2023/04/02 03:10:16;;;;;;;10.05;4.65;;;6.90;99.90;;;;;;4958287;28;20031;-71
2023/04/02 03:13:00;;;;;;;13.48;4.13;;;6.90;99.90;;;;;;4957111;28;20067;-71
2023/04/02 03:15:41;;;;;;;13.35;4.55;;;6.90;99.90;;;;;;4958599;29;20077;-71
2023/04/02 03:18:24;;;;;;;11.77;4.88;;;7.00;99.90;;;;;;4959282;28;20023;-71
2023/04/02 03:21:01;;;;;;;11.05;4.28;;;7.10;99.90;;;;;;4920005;28;1178018;-71
2023/04/02 03:23:33;;;;;;;19.55;5.07;;;7.10;99.90;;;;;;4959460;29;20031;-71
2023/04/02 03:26:36;;;;;;;12.30;4.18;;;7.10;99.90;;;;;;4960670;28;20490;-71
2023/04/02 03:29:21;;;;;;;12.85;3.97;;;7.20;99.90;;;;;;4956509;29;20027;-71
2023/04/02 03:32:02;;;;;;;14.68;4.60;;;7.20;99.90;;;;;;4960783;28;20491;-71
2023/04/02 03:34:34;;;;;;;12.65;4.40;;;7.20;99.90;;;;;;4960369;28;20026;-72
2023/04/02 03:37:18;;;;;;;14.07;4.75;;;7.30;99.90;;;;;;4960248;28;20054;-71
2023/04/02 03:39:51;;;;;;;18.25;7.03;;;7.30;99.90;;;;;;4960553;29;20558;-71
2023/04/02 03:42:23;;;;;;;11.00;4.35;;;7.30;99.90;;;;;;4960257;28;20102;-72
2023/04/02 03:45:06;;;;;;;16.25;5.50;;;7.40;99.90;;;;;;4960340;29;20031;-71
2023/04/02 03:48:00;;;;;;;8.02;4.85;;;7.40;99.90;;;;;;4954411;29;20522;-72
2023/04/02 03:50:51;;;;;;;19.73;6.30;;;7.40;99.90;;;;;;4957812;28;20038;-71
2023/04/02 03:53:21;;;;;;;16.70;4.88;;;7.40;99.90;;;;;;4958636;29;20029;-71
2023/04/02 03:55:47;;;;;;;10.32;4.25;;;7.40;99.90;;;;;;4958796;28;20029;-71
2023/04/02 03:58:45;;;;;;;12.35;4.72;;;7.30;99.90;;;;;;4959898;29;20035;-70
2023/04/02 04:01:33;;;;;;;14.85;4.28;;;7.30;99.90;;;;;;4952340;28;20039;-71
2023/04/02 04:04:13;;;;;;;17.48;4.85;;;7.30;99.90;;;;;;4950535;29;20111;-71
2023/04/02 04:06:44;;;;;;;14.40;4.90;;;7.40;99.90;;;;;;4959688;28;20019;-71
2023/04/02 04:09:15;;;;;;;;;;;7.40;99.90;;;;;;4958794;28;20031;-71
2023/04/02 04:11:51;;;;;;;15.55;4.70;;;7.40;99.90;;;;;;4959321;28;19911;-71
2023/04/02 04:14:18;;;;;;;13.50;4.88;;;7.30;99.90;;;;;;4959548;28;20034;-71
2023/04/02 04:17:04;;;;;;;11.52;5.65;;;7.30;99.90;;;;;;4958479;28;20110;-71
2023/04/02 04:19:38;;;;;;;12.57;4.60;;;7.40;99.90;;;;;;4959012;28;20047;-71
2023/04/02 04:22:29;;;;;;;11.38;4.82;;;7.30;99.90;;;;;;4959598;28;20047;-70
2023/04/02 04:25:06;;;;;;;22.15;6.13;;;7.30;99.90;;;;;;4947312;29;20028;-71
2023/04/02 04:27:55;;;;;;;16.10;5.82;;;7.30;99.90;;;;;;4951490;28;20515;-71
2023/04/02 04:30:46;;;;;;;12.20;4.53;;;7.30;99.90;;;;;;4958014;28;20078;-71
2023/04/02 04:33:24;;;;;;;13.00;4.35;;;7.30;99.90;;;;;;4949470;29;20035;-71
2023/04/02 04:35:57;;;;;;;12.20;5.05;;;7.20;99.90;;;;;;4959239;28;20027;-72
2023/04/02 04:38:34;;;;;;;14.57;5.05;;;7.30;99.90;;;;;;4958134;28;20518;-72
2023/04/02 04:41:20;;;;;;;21.38;5.05;;;7.40;99.90;;;;;;4946273;28;20495;-71
2023/04/02 04:43:49;;;;;;;19.20;5.50;;;7.40;99.90;;;;;;4957815;28;20556;-71
2023/04/02 04:46:44;;;;;;;16.17;5.10;;;7.40;99.90;;;;;;4959249;29;20023;-72
2023/04/02 04:49:13;;;;;;;15.00;5.53;;;7.50;99.90;;;;;;4946489;28;20067;-71
2023/04/02 04:51:45;;;;;;;15.95;4.95;;;7.60;99.90;;;;;;4959002;28;20019;-71
2023/04/02 04:54:15;;;;;;;17.10;5.45;;;7.60;99.90;;;;;;4959278;28;20015;-71
2023/04/02 04:56:48;;;;;;;16.05;6.45;;;7.70;99.90;;;;;;4957639;28;20023;-71
2023/04/02 04:59:20;;;;;;;27.58;6.13;;;7.70;99.90;;;;;;4957908;28;20027;-71
2023/04/02 05:02:08;;;;;;;19.13;5.95;;;7.80;99.90;;;;;;4958735;28;20027;-71
2023/04/02 05:04:39;;;;;;;11.40;5.10;;;7.80;99.90;;;;;;4952085;28;20039;-72
2023/04/02 05:07:08;;;;;;;;;;;7.80;99.90;;;;;;4958167;29;20027;-71
2023/04/02 05:09:39;;;;;;;17.38;5.78;;;7.90;99.90;;;;;;4958720;28;20398;-71
2023/04/02 05:12:11;;;;;;;12.38;5.43;;;7.90;99.90;;;;;;4959142;28;20507;-71
2023/04/02 05:14:42;;;;;;;13.02;5.30;;;7.90;99.90;;;;;;4957357;29;20435;-71
2023/04/02 05:17:27;;;;;;;19.27;6.70;;;7.80;99.90;;;;;;4958954;29;20479;-71
2023/04/02 05:20:15;;;;;;;13.40;5.93;;;7.80;99.90;;;;;;4958634;28;20044;-71
2023/04/02 05:22:54;;;;;;;15.55;5.72;;;7.90;99.90;;;;;;4957235;28;20126;-71
2023/04/02 05:25:27;;;;;;;19.17;6.38;;;7.90;99.90;;;;;;4958878;28;20559;-71
2023/04/02 05:28:16;;;;;;;19.30;5.50;;;7.80;99.90;;;;;;4958492;28;20038;-71
2023/04/02 05:30:48;;;;;;;18.35;5.85;;;7.80;99.90;;;;;;4958642;29;20443;-71
2023/04/02 05:33:33;;;;;;;14.50;5.13;;;7.80;99.90;;;;;;4957199;28;20031;-70
2023/04/02 05:36:11;;;;;;;23.90;5.50;;;7.80;99.90;;;;;;4958745;28;20031;-71
2023/04/02 05:38:42;;;;;;;20.95;5.57;;;7.80;99.90;;;;;;4958516;29;20038;-72
2023/04/02 05:41:37;;;;;;;27.98;8.27;;;7.80;99.90;;;;;;4958889;29;20016;-71
2023/04/02 05:44:24;;;;;;;19.95;5.90;;;7.80;99.90;;;;;;4957201;28;20452;-71
2023/04/02 05:47:09;;;;;;;22.65;5.95;;;7.80;99.90;;;;;;4957125;28;20027;-70
2023/04/02 05:49:43;;;;;;;23.23;7.63;;;7.80;99.90;;;;;;4956995;29;20028;-71
2023/04/02 05:52:16;;;;;;;33.58;6.88;;;7.80;99.90;;;;;;4957388;28;20023;-71
2023/04/02 05:55:01;;;;;;;19.20;5.35;;;7.80;99.90;;;;;;4957974;28;20023;-71
2023/04/02 05:57:46;;;;;;;20.38;5.63;;;7.80;99.90;;;;;;4958725;29;20046;-71
2023/04/02 06:00:19;;;;;;;18.58;5.57;;;7.90;99.90;;;;;;4958375;28;20031;-72
2023/04/02 06:02:53;;;;;;;15.15;5.43;;;7.90;99.90;;;;;;4958496;28;20023;-72
2023/04/02 06:05:24;;;;;;;23.98;6.18;;;8.00;99.90;;;;;;4946530;29;20111;-71
2023/04/02 06:07:57;;;;;;;33.47;7.05;;;8.00;99.90;;;;;;4956946;28;20034;-72
2023/04/02 06:10:25;;;;;;;12.73;5.45;;;8.10;99.90;;;;;;4957069;28;20039;-71
2023/04/02 06:13:07;;;;;;;25.65;5.28;;;8.10;99.90;;;;;;4957581;28;20392;-71
2023/04/02 06:15:35;;;;;;;19.45;5.57;;;8.10;99.90;;;;;;4961686;29;20055;-71
2023/04/02 06:18:07;;;;;;;20.45;6.63;;;8.20;99.90;;;;;;4961363;28;20035;-71
2023/04/02 06:20:33;;;;;;;24.10;6.75;;;8.20;99.90;;;;;;4961899;28;20059;-71
2023/04/02 06:23:29;;;;;;;27.20;7.05;;;8.30;99.90;;;;;;4961479;29;20042;-71
2023/04/02 06:26:11;;;;;;;14.43;4.90;;;8.30;99.90;;;;;;4961546;28;20061;-71
2023/04/02 06:28:40;;;;;;;23.70;5.53;;;8.30;99.90;;;;;;4953236;29;20027;-71
2023/04/02 06:31:35;;;;;;;25.88;5.78;;;8.40;99.90;;;;;;4961455;28;20015;-71
2023/04/02 06:34:03;;;;;;;23.55;6.05;;;8.40;99.90;;;;;;4958763;28;20097;-72
2023/04/02 06:36:29;;;;;;;17.42;5.47;;;8.50;99.90;;;;;;4961417;29;20032;-71
2023/04/02 06:39:00;;;;;;;20.58;5.10;;;8.50;99.90;;;;;;4960022;28;20030;-71
2023/04/02 06:41:26;;;;;;;17.23;5.05;;;8.50;99.90;;;;;;4960225;28;20038;-71
2023/04/02 06:43:57;;;;;;;16.77;5.90;;;8.60;99.90;;;;;;4961090;29;20031;-71
2023/04/02 06:46:34;;;;;;;19.48;5.50;;;8.70;99.90;;;;;;4961244;28;20566;-71
2023/04/02 06:49:38;;;;;;;18.50;6.60;;;8.70;99.90;;;;;;4960201;28;20027;-70
2023/04/02 06:52:12;;;;;;;26.13;6.68;;;8.70;99.90;;;;;;4961018;28;20019;-70
2023/04/02 06:54:38;;;;;;;19.92;5.63;;;8.80;99.90;;;;;;4961240;28;20050;-70
2023/04/02 06:57:06;;;;;;;20.80;5.95;;;8.80;99.90;;;;;;4960104;28;20515;-70
2023/04/02 06:59:31;;;;;;;33.05;6.78;;;8.90;99.90;;;;;;4959884;28;20026;-70
2023/04/02 07:02:05;;;;;;;21.70;4.95;;;9.00;99.90;;;;;;4961064;29;20035;-70
2023/04/02 07:04:31;;;;;;;21.13;6.25;;;9.20;99.90;;;;;;4957206;28;20114;-70
2023/04/02 07:06:57;;;;;;;17.45;4.97;;;9.40;99.90;;;;;;4960880;28;20102;-70
2023/04/02 07:09:24;;;;;;;16.17;5.28;;;9.50;99.90;;;;;;4959502;28;20031;-71
2023/04/02 07:11:50;;;;;;;18.30;6.68;;;9.60;99.90;;;;;;4959523;28;20074;-71
2023/04/02 07:14:16;;;;;;;27.75;6.55;;;9.40;99.90;;;;;;4959436;28;20028;-70
2023/04/02 07:16:42;;;;;;;24.10;7.38;;;9.30;99.90;;;;;;4960813;29;20023;-71
2023/04/02 07:19:20;;;;;;;26.92;6.72;;;9.20;99.90;;;;;;4958931;28;20572;-70
2023/04/02 07:21:46;;;;;;;17.50;4.85;;;9.20;99.90;;;;;;4959653;29;20039;-71
2023/04/02 07:24:11;;;;;;;22.05;5.75;;;9.20;99.90;;;;;;4958188;28;20131;-71
2023/04/02 07:26:37;;;;;;;20.13;5.60;;;9.10;99.90;;;;;;4954819;28;20119;-70
2023/04/02 07:29:10;;;;;;;19.80;5.22;;;9.20;99.90;;;;;;4960034;28;20035;-72
2023/04/02 07:31:39;;;;;;;24.33;5.18;;;9.30;99.90;;;;;;4960340;28;20074;-73
2023/04/02 07:34:06;;;;;;;21.60;5.57;;;9.30;99.90;;;;;;4958157;29;20027;-72
2023/04/02 07:36:31;;;;;;;22.90;5.45;;;9.40;99.90;;;;;;4959895;28;20046;-71
2023/04/02 07:38:57;;;;;;;16.88;5.40;;;9.50;99.90;;;;;;4958952;28;20035;-71
2023/04/02 07:41:23;;;;;;;19.77;5.10;;;9.50;99.90;;;;;;4960168;28;20031;-72
2023/04/02 07:43:49;;;;;;;15.30;4.93;;;9.50;99.90;;;;;;4959973;28;20036;-72
2023/04/02 07:46:16;;;;;;;20.77;5.85;;;9.50;99.90;;;;;;4955746;28;20027;-72
2023/04/02 07:48:43;;;;;;;12.32;4.35;;;9.60;99.90;;;;;;4955729;28;20683;-72
2023/04/02 07:51:18;;;;;;;12.90;4.60;;;9.60;99.90;;;;;;4960188;28;20023;-72
2023/04/02 07:53:44;;;;;;;21.20;4.38;;;9.60;99.90;;;;;;4958927;28;20030;-72
2023/04/02 07:56:17;;;;;;;17.05;4.38;;;9.70;99.90;;;;;;4959917;28;20074;-72
2023/04/02 07:58:43;;;;;;;15.02;5.38;;;9.70;99.90;;;;;;4958705;29;20042;-72
2023/04/02 08:01:18;;;;;;;18.38;5.78;;;9.80;99.90;;;;;;4959653;28;20023;-72
2023/04/02 08:03:44;;;;;;;17.08;4.15;;;9.80;99.90;;;;;;4951186;28;20023;-71
2023/04/02 08:06:10;;;;;;;9.73;4.10;;;9.90;99.90;;;;;;4959588;29;20026;-72
2023/04/02 08:08:36;;;;;;;22.15;6.03;;;9.90;99.90;;;;;;4959712;28;20262;-72
2023/04/02 08:11:02;;;;;;;19.08;4.43;;;9.90;99.90;;;;;;4959661;28;20567;-72
2023/04/02 08:13:28;;;;;;;16.90;6.72;;;10.00;99.90;;;;;;4958404;28;20104;-72
2023/04/02 08:15:56;;;;;;;12.25;5.00;;;10.00;99.90;;;;;;4959289;28;20019;-71
2023/04/02 08:18:22;;;;;;;16.58;4.60;;;10.00;99.90;;;;;;4959266;28;20024;-72
2023/04/02 08:20:48;;;;;;;10.57;3.50;;;10.10;99.90;;;;;;4959261;28;20058;-72
2023/04/02 08:23:16;;;;;;;16.98;5.85;;;10.10;99.90;;;;;;4959709;28;20032;-73
2023/04/02 08:25:42;;;;;;;11.90;4.43;;;10.20;99.90;;;;;;4959407;28;20106;-73
2023/04/02 08:28:08;;;;;;;14.40;4.30;;;10.30;99.90;;;;;;4958183;28;20100;-72
2023/04/02 08:30:34;;;;;;;20.55;5.90;;;10.30;99.90;;;;;;4959222;28;20031;-71
2023/04/02 08:33:00;;;;;;;14.50;4.70;;;10.30;99.90;;;;;;4959339;28;20027;-72
2023/04/02 08:35:25;;;;;;;18.02;5.13;;;10.40;99.90;;;;;;4958912;28;20023;-72
2023/04/02 08:37:51;;;;;;;19.38;4.20;;;10.50;99.90;;;;;;4956790;28;20034;-71
2023/04/02 08:40:29;;;;;;;17.83;4.75;;;10.60;99.90;;;;;;4959008;29;20034;-72
2023/04/02 08:43:31;;;;;;;18.42;4.70;;;10.70;99.90;;;;;;4944169;28;20102;-72
2023/04/02 08:46:03;;;;;;;13.20;4.07;;;10.90;99.90;;;;;;4963659;28;20098;-72
2023/04/02 08:48:30;;;;;;;16.35;4.63;;;10.90;99.90;;;;;;4964688;28;20023;-71
2023/04/02 08:50:57;;;;;;;16.83;5.25;;;11.10;99.90;;;;;;4957257;28;20658;-72
2023/04/02 08:53:43;;;;;;;13.55;4.95;;;11.10;99.90;;;;;;4965755;28;20027;-71
2023/04/02 08:56:35;;;;;;;15.45;5.15;;;11.40;99.90;;;;;;4974968;28;20046;-71
2023/04/02 08:59:07;;;;;;;13.15;5.63;;;11.60;99.90;;;;;;4970253;28;20023;-72
2023/04/02 09:01:46;;;;;;;20.42;4.45;;;11.60;99.90;;;;;;4964123;28;20047;-71
2023/04/02 09:04:21;;;;;;;14.90;3.42;;;11.60;99.90;;;;;;4969862;28;20034;-71
2023/04/02 09:06:50;;;;;;;11.13;3.95;;;11.40;99.90;;;;;;4971337;28;20030;-71
2023/04/02 09:09:16;;;;;;;15.82;5.68;;;11.20;99.90;;;;;;4972499;28;20082;-71
2023/04/02 09:11:51;;;;;;;14.40;3.75;;;11.10;99.90;;;;;;4959281;28;20023;-72
2023/04/02 09:14:44;;;;;;;10.88;4.30;;;11.00;99.90;;;;;;4960139;28;20139;-71
2023/04/02 09:17:25;;;;;;;13.18;4.03;;;10.90;99.90;;;;;;4961443;28;20122;-72
2023/04/02 09:19:56;;;;;;;11.57;4.68;;;10.90;99.90;;;;;;4971175;28;20050;-72
2023/04/02 09:22:26;;;;;;;12.82;4.28;;;11.10;99.90;;;;;;4969242;28;20031;-72
2023/04/02 09:24:53;;;;;;;9.82;3.70;;;11.30;99.90;;;;;;4962125;28;20039;-71
2023/04/02 09:27:22;;;;;;;13.93;4.40;;;11.30;99.90;;;;;;4968202;28;20042;-72
2023/04/02 09:29:52;;;;;;;15.65;3.78;;;11.40;99.90;;;;;;4965531;28;20027;-74
2023/04/02 09:32:33;;;;;;;7.95;3.38;;;11.60;99.90;;;;;;4956356;28;20031;-73
2023/04/02 09:35:08;;;;;;;21.40;4.85;;;11.80;99.90;;;;;;4966117;28;20023;-74
2023/04/02 09:37:36;;;;;;;13.38;4.22;;;12.10;99.90;;;;;;4965637;28;20027;-74
2023/04/02 09:40:25;;;;;;;15.07;5.63;;;12.20;99.90;;;;;;4969308;28;20027;-74
2023/04/02 09:43:17;;;;;;;13.60;3.70;;;12.40;99.90;;;;;;4968731;28;20023;-74
2023/04/02 09:45:54;;;;;;;9.07;3.80;;;12.10;99.90;;;;;;4969800;28;20034;-73
2023/04/02 09:48:33;;;;;;;7.32;3.95;;;11.80;99.90;;;;;;4979282;28;20185;-73
2023/04/02 09:51:21;;;;;;;7.38;3.42;;;11.70;99.90;;;;;;4972607;28;20491;-74
2023/04/02 09:54:07;;;;;;;9.63;3.30;;;11.70;99.90;;;;;;4967645;28;20097;-73
2023/04/02 09:56:34;;;;;;;10.60;3.72;;;11.60;99.90;;;;;;4970458;28;20065;-74
2023/04/02 09:59:12;;;;;;;12.05;3.35;;;11.50;99.90;;;;;;4979141;28;20031;-72
2023/04/02 10:01:52;;;;;;;7.25;3.47;;;11.40;99.90;;;;;;4969758;28;20038;-72
2023/04/02 10:04:37;;;;;;;8.27;2.80;;;11.30;99.90;;;;;;4970438;28;20042;-71
2023/04/02 10:07:05;;;;;;;15.38;2.78;;;11.20;99.90;;;;;;4972708;28;20081;-72
2023/04/02 10:09:36;;;;;;;7.82;4.03;;;11.20;99.90;;;;;;4968257;28;20398;-72
2023/04/02 10:12:06;;;;;;;10.32;4.05;;;11.20;99.90;;;;;;4962859;28;20115;-73
2023/04/02 10:14:41;;;;;;;6.47;3.78;;;11.20;99.90;;;;;;4965697;28;20027;-72
2023/04/02 10:17:17;;;;;;;5.88;2.83;;;11.20;99.90;;;;;;4974498;28;20031;-71
2023/04/02 10:19:50;;;;;;;4.28;2.72;;;11.10;99.90;;;;;;4965755;28;20069;-72
2023/04/02 10:22:18;;;;;;;10.23;2.78;;;11.20;99.90;;;;;;4970269;28;20023;-71
2023/04/02 10:24:44;;;;;;;10.13;3.47;;;11.40;99.90;;;;;;4968659;28;20027;-72
2023/04/02 10:27:21;;;;;;;4.32;2.72;;;11.70;99.90;;;;;;4966600;28;20039;-72
2023/04/02 10:30:09;;;;;;;6.72;2.72;;;12.00;99.90;;;;;;4972141;28;20488;-72
2023/04/02 10:32:54;;;;;;;7.43;3.10;;;12.20;99.90;;;;;;4966261;28;20019;-72
2023/04/02 10:35:56;;;;;;;6.05;3.08;;;12.30;99.90;;;;;;4972055;28;20029;-71
2023/04/02 10:38:42;;;;;;;8.95;3.40;;;12.30;99.90;;;;;;4964385;28;20026;-72
2023/04/02 10:41:32;;;;;;;5.72;2.63;;;12.50;99.90;;;;;;4975823;28;20066;-71
2023/04/02 10:44:09;;;;;;;4.18;2.25;;;12.60;99.90;;;;;;4970259;28;20022;-71
2023/04/02 10:46:38;;;;;;;5.07;2.13;;;12.80;99.90;;;;;;4974048;28;20125;-71
2023/04/02 10:49:39;;;;;;;5.28;2.38;;;13.10;99.90;;;;;;4975189;28;20050;-72
2023/04/02 10:52:26;;;;;;;2.83;2.13;;;13.20;99.90;;;;;;4943723;28;20043;-72
2023/04/02 10:55:00;;;;;;;2.00;1.80;;;13.00;99.90;;;;;;4958857;28;20026;-71
2023/04/02 10:57:36;;;;;;;2.97;2.05;;;12.90;99.90;;;;;;4975382;28;20030;-72
2023/04/02 11:00:26;;;;;;;3.15;2.00;;;12.90;99.90;;;;;;4970019;28;20027;-71
2023/04/02 11:03:13;;;;;;;3.67;2.00;;;12.90;99.90;;;;;;4967321;28;20109;-72
2023/04/02 11:05:46;;;;;;;3.00;2.28;;;12.70;99.90;;;;;;4968721;28;20098;-72
2023/04/02 11:08:30;;;;;;;4.65;2.00;;;12.60;99.90;;;;;;4969129;28;20058;-71
2023/04/02 11:10:57;;;;;;;3.42;2.00;;;12.60;99.90;;;;;;4973383;28;20023;-71
2023/04/02 11:13:25;;;;;;;2.00;1.73;;;13.00;99.90;;;;;;4962357;28;20071;-72
2023/04/02 11:15:52;;;;;;;4.45;1.98;;;13.20;99.90;;;;;;4960343;28;20114;-72
2023/04/02 11:18:34;;;;;;;2.92;1.73;;;13.20;99.90;;;;;;4959591;28;20088;-71
2023/04/02 11:21:01;;;;;;;4.25;1.92;;;13.10;99.90;;;;;;4958253;28;20145;-72
2023/04/02 11:23:38;;;;;;;1.95;1.80;;;13.20;99.90;;;;;;4959548;28;20043;-72
2023/04/02 11:26:40;;;;;;;2.30;1.85;;;13.30;99.90;;;;;;4959535;28;20019;-72
2023/04/02 11:29:17;;;;;;;4.68;2.42;;;13.30;99.90;;;;;;4955879;28;20015;-72
2023/04/02 11:31:44;;;;;;;4.25;1.98;;;13.40;99.90;;;;;;4959777;28;20078;-72
2023/04/02 11:34:39;;;;;;;3.08;2.28;;;13.60;99.90;;;;;;4959900;28;20031;-71
2023/04/02 11:37:09;;;;;;;5.70;2.25;;;13.60;99.90;;;;;;4957362;28;20038;-71
2023/04/02 11:40:10;;;;;;;4.93;3.03;;;13.60;99.90;;;;;;4960572;28;20075;-71
2023/04/02 11:42:40;;;;;;;3.17;1.70;;;13.00;99.90;;;;;;4958074;28;20039;-73
2023/04/02 11:45:26;;;;;;;2.60;2.08;;;12.40;99.90;;;;;;4959921;28;20098;-73
2023/04/02 11:47:58;;;;;;;2.80;1.95;;;11.90;99.90;;;;;;4954045;28;20869;-72
2023/04/02 11:50:27;;;;;;;5.93;2.60;;;11.80;99.90;;;;;;4958079;28;20086;-72
2023/04/02 11:53:01;;;;;;;7.78;2.58;;;12.10;99.90;;;;;;4959915;28;20082;-73
2023/04/02 11:55:32;;;;;;;3.33;2.15;;;12.40;99.90;;;;;;4958711;29;20071;-72
2023/04/02 11:58:09;;;;;;;3.78;2.03;;;12.70;99.90;;;;;;4958358;28;20031;-73
2023/04/02 12:01:10;;;;;;;2.70;2.40;;;12.90;99.90;;;;;;4958602;28;20035;-72
2023/04/02 12:03:41;;;;;;;4.13;2.38;;;13.00;99.90;;;;;;4950459;29;20051;-72
2023/04/02 12:06:25;;;;;;;6.00;2.83;;;12.80;99.90;;;;;;4959320;28;20431;-72
2023/04/02 12:09:11;;;;;;;3.90;2.42;;;12.60;99.90;;;;;;4950148;28;20086;-72
2023/04/02 12:11:38;;;;;;;3.05;2.60;;;12.60;99.90;;;;;;4959115;28;20033;-73
2023/04/02 12:14:42;;;;;;;2.47;2.20;;;12.50;99.90;;;;;;4958208;28;20045;-72
2023/04/02 12:17:37;;;;;;;3.75;2.28;;;12.60;99.90;;;;;;4959303;28;20019;-72
2023/04/02 12:20:21;;;;;;;3.53;2.38;;;12.80;99.90;;;;;;4946040;28;20443;-71
2023/04/02 12:22:53;;;;;;;3.03;2.47;;;12.90;99.90;;;;;;4958475;28;20026;-71
2023/04/02 12:25:28;;;;;;;4.00;2.47;;;13.30;99.90;;;;;;4959357;29;20023;-72
2023/04/02 12:28:23;;;;;;;3.92;2.20;;;13.60;99.90;;;;;;4959228;28;20102;-72
2023/04/02 12:31:00;;;;;;;4.03;2.42;;;13.50;99.90;;;;;;4951590;28;20035;-72
2023/04/02 12:33:36;;;;;;;2.53;2.30;;;13.30;99.90;;;;;;4951702;29;20029;-72
2023/04/02 12:36:05;;;;;;;2.10;1.90;;;13.50;99.90;;;;;;4958031;28;20026;-71
2023/04/02 12:38:42;;;;;;;2.20;2.00;;;13.60;99.90;;;;;;4959267;28;20023;-73
2023/04/02 12:41:28;;;;;;;2.38;2.10;;;13.60;99.90;;;;;;4959043;28;20024;-71
2023/04/02 12:44:05;;;;;;;3.67;1.90;;;13.90;99.90;;;;;;4957817;29;20023;-71
2023/04/02 12:46:33;;;;;;;2.00;1.73;;;14.10;99.90;;;;;;4958217;28;20503;-71
2023/04/02 12:49:10;;;;;;;3.95;2.13;;;14.10;99.90;;;;;;4958663;29;20106;-72
2023/04/02 12:51:36;;;;;;;3.88;2.10;;;14.10;99.90;;;;;;4953876;28;20047;-71
2023/04/02 12:54:02;;;;;;;3.38;2.30;;;14.00;99.90;;;;;;4958950;28;20488;-71
2023/04/02 12:56:28;;;;;;;2.53;2.28;;;13.80;99.90;;;;;;4958923;28;20023;-72
2023/04/02 12:58:56;;;;;;;3.78;1.92;;;13.70;99.90;;;;;;4959197;29;20035;-71
2023/04/02 13:01:30;;;;;;;3.15;2.20;;;13.60;99.90;;;;;;4958755;28;20809;-72
2023/04/02 13:03:59;;;;;;;2.28;2.08;;;13.50;99.90;;;;;;4958869;28;20027;-71
2023/04/02 13:06:25;;;;;;;2.20;2.00;;;13.50;99.90;;;;;;4958769;28;20057;-72
2023/04/02 13:08:53;;;;;;;2.95;1.85;;;13.60;99.90;;;;;;4957705;28;20632;-72
2023/04/02 13:11:21;;;;;;;2.13;1.80;;;13.80;99.90;;;;;;4958693;28;20517;-72
2023/04/02 13:13:48;;;;;;;3.25;2.30;;;14.00;99.90;;;;;;4959154;28;20019;-71
2023/04/02 13:16:16;;;;;;;3.15;2.15;;;14.20;99.90;;;;;;4957414;29;20107;-72
2023/04/02 13:18:44;;;;;;;4.68;2.08;;;14.30;99.90;;;;;;4958757;28;20106;-72
2023/04/02 13:21:16;;;;;;;2.90;1.83;;;14.40;99.90;;;;;;4958495;29;20044;-72
2023/04/02 13:23:42;;;;;;;4.57;2.03;;;14.70;99.90;;;;;;4961579;28;20109;-71
2023/04/02 13:26:25;;;;;;;4.43;1.83;;;14.40;99.90;;;;;;4962697;28;20488;-71
2023/04/02 13:29:20;;;;;;;2.17;1.77;;;14.10;99.90;;;;;;4962621;28;20031;-72